Bretagne — FNBR — position and weather

sailwx.info

Track history (hours):
 
Tides and Currents Weather Stations Pressure Air Temp Water Temp Dewpoint Dewpoint Depression Visibility Wind Speed Wind Dir Waves Ship Positions

Bretagne

Operator: Brittany Ferries

Last reported at 2016-Feb-10 08:32 UTC. Time now 2016-Feb-10 08:52 UTC.
Position N 50°49' W 001°06'.

Length 151 m; beam 27 m.

Type: Ship. MMSI: 227286000.

Date/timePositionNaut miles runAvg speedWind from/ knotsBaromVisibWave heightAir tempDewpointWater temp
2016-Feb-10 08:32N 50°49' W 001°06'0 0.1
2016-Feb-10 07:33N 50°49' W 001°06'1110.8
2016-Feb-10 06:33N 50°39' W 000°59'1815.3
2016-Feb-10 05:22N 50°25' W 001°18'28 1.0
2016-Feb-09 01:04N 50°26' W 002°02'714.0
2016-Feb-09 00:34N 50°32' W 001°56'1515.0
2016-Feb-08 23:34N 50°33' W 001°33'1311.9
2016-Feb-08 22:31N 50°34' W 001°13'1112.1
2016-Feb-08 21:34N 50°43' W 001°02'6 6.4
2016-Feb-08 20:33N 50°49' W 001°06'0 0.0
2016-Feb-08 19:33N 50°49' W 001°06'6 5.9
2016-Feb-08 18:34N 50°43' W 001°02'23 1.1
2016-Feb-07 22:32N 50°28' W 001°28'1212.4
2016-Feb-07 21:33N 50°34' W 001°11'1212.1
2016-Feb-07 20:33N 50°46' W 001°05'3 2.8
2016-Feb-07 19:32N 50°49' W 001°06'0 0.0
2016-Feb-07 18:32N 50°49' W 001°06'0 0.0
2016-Feb-07 17:32N 50°49' W 001°06'0 0.0
2016-Feb-07 16:32N 50°49' W 001°06'0 0.0
2016-Feb-07 15:32N 50°49' W 001°06'0 0.0
2016-Feb-07 14:32N 50°49' W 001°06'0 0.0
2016-Feb-07 13:32N 50°49' W 001°06'0 0.0
2016-Feb-07 12:32N 50°49' W 001°06'0 0.0
2016-Feb-07 11:32N 50°49' W 001°06'0 0.0
2016-Feb-07 10:32N 50°49' W 001°06'0 0.0
2016-Feb-07 09:32N 50°49' W 001°06'0 0.0
2016-Feb-07 08:32N 50°49' W 001°06'1 0.9
2016-Feb-07 07:33N 50°48' W 001°07'9 9.3
2016-Feb-07 06:33N 50°39' W 001°06'19 0.6
2016-Feb-05 22:33N 50°23' W 001°21'1515.6
2016-Feb-05 21:34N 50°36' W 001°08'1212.4
2016-Feb-05 20:34N 50°48' W 001°07'1 0.9
2016-Feb-05 19:33N 50°49' W 001°06'0 0.0
2016-Feb-05 18:33N 50°49' W 001°06'0 0.0
2016-Feb-05 17:33N 50°49' W 001°06'0 0.0
2016-Feb-05 16:33N 50°49' W 001°06'0 0.0
2016-Feb-05 15:32N 50°49' W 001°06'0 0.0
2016-Feb-05 14:32N 50°49' W 001°06'0 0.0
2016-Feb-05 13:32N 50°49' W 001°06'0 0.0
2016-Feb-05 12:32N 50°49' W 001°06'0 0.0
2016-Feb-05 11:32N 50°49' W 001°06'0 0.0
2016-Feb-05 10:32N 50°49' W 001°06'0 0.0
2016-Feb-05 09:33N 50°49' W 001°06'0 0.0
2016-Feb-05 08:33N 50°49' W 001°06'0 0.0
2016-Feb-05 07:33N 50°49' W 001°06'10 9.6
2016-Feb-05 06:33N 50°39' W 001°05'23 0.7
2016-Feb-03 22:25N 50°20' W 001°25'1416.4
2016-Feb-03 21:33N 50°32' W 001°12'1414.2
2016-Feb-03 20:34N 50°45' W 001°05'4 3.6
2016-Feb-03 19:32N 50°49' W 001°06'0 0.0
2016-Feb-03 18:32N 50°49' W 001°06'0 0.0
2016-Feb-03 17:32N 50°49' W 001°06'0 0.0
2016-Feb-03 16:32N 50°49' W 001°06'0 0.0
2016-Feb-03 15:32N 50°49' W 001°06'0 0.0
2016-Feb-03 14:31N 50°49' W 001°06'0 0.0
2016-Feb-03 13:31N 50°49' W 001°06'0 0.0
2016-Feb-03 12:32N 50°49' W 001°06'0 0.0
2016-Feb-03 11:33N 50°49' W 001°06'0 0.0
2016-Feb-03 10:31N 50°49' W 001°06'0 0.0
2016-Feb-03 09:31N 50°49' W 001°06'0 0.0
2016-Feb-03 08:31N 50°49' W 001°06'0 0.0
2016-Feb-03 07:33N 50°49' W 001°06'10 9.8
2016-Feb-03 06:33N 50°39' W 001°05'6 0.2
2016-Feb-01 21:33N 50°35' W 001°12'1313.2
2016-Feb-01 20:33N 50°47' W 001°07'1 1.4
2016-Feb-01 19:32N 50°49' W 001°06'0 0.0
2016-Feb-01 18:32N 50°49' W 001°06'4 4.2
2016-Feb-01 17:33N 50°45' W 001°05'1714.6
2016-Feb-01 16:24N 50°29' W 001°15'7116.5
2016-Feb-01 12:07N 49°24' W 001°57'1419.4
2016-Feb-01 11:23N 49°10' W 001°52'32 8.1
2016-Feb-01 07:26N 48°38' W 002°02'8 8.2
2016-Feb-01 06:28N 48°45' W 002°09'1617.7
2016-Feb-01 05:32N 48°59' W 002°22'9315.0
2016-Jan-31 23:19N 50°24' W 001°23'1114.2
2016-Jan-31 22:33N 50°33' W 001°16'1312.6
2016-Jan-31 21:34N 50°41' W 000°60'9 9.0
2016-Jan-31 20:34N 50°49' W 001°06'0 0.2
2016-Jan-31 19:32N 50°49' W 001°06'0 0.0
2016-Jan-31 18:32N 50°49' W 001°06'0 0.0
2016-Jan-31 17:32N 50°49' W 001°06'0 0.0
2016-Jan-31 16:32N 50°49' W 001°06'0 0.0
2016-Jan-31 15:32N 50°49' W 001°06'0 0.0
2016-Jan-31 14:32N 50°49' W 001°06'0 0.0
2016-Jan-31 13:32N 50°49' W 001°06'0 0.0
2016-Jan-31 12:29N 50°49' W 001°06'0 0.0
2016-Jan-31 11:32N 50°49' W 001°06'0 0.0
2016-Jan-31 10:32N 50°49' W 001°06'0 0.0
2016-Jan-31 09:32N 50°49' W 001°06'  
Track history (hours):
 
Tides and Currents Weather Stations Pressure Air Temp Water Temp Dewpoint Dewpoint Depression Visibility Wind Speed Wind Dir Waves Ship Positions

Bretagne

Operator: Brittany Ferries

Last reported at 2016-Feb-10 08:32 UTC. Time now 2016-Feb-10 08:52 UTC.
Position N 50°49' W 001°06'.

Length 151 m; beam 27 m.

Type: Ship. MMSI: 227286000.

Date/timePositionNaut miles runAvg speedWind from/ knotsBaromVisibWave heightAir tempDewpointWater temp
2016-Feb-10 08:32N 50°49' W 001°06'0 0.1
2016-Feb-10 07:33N 50°49' W 001°06'1110.8
2016-Feb-10 06:33N 50°39' W 000°59'1815.3
2016-Feb-10 05:22N 50°25' W 001°18'28 1.0
2016-Feb-09 01:04N 50°26' W 002°02'714.0
2016-Feb-09 00:34N 50°32' W 001°56'1515.0
2016-Feb-08 23:34N 50°33' W 001°33'1311.9
2016-Feb-08 22:31N 50°34' W 001°13'1112.1
2016-Feb-08 21:34N 50°43' W 001°02'6 6.4
2016-Feb-08 20:33N 50°49' W 001°06'0 0.0
2016-Feb-08 19:33N 50°49' W 001°06'6 5.9
2016-Feb-08 18:34N 50°43' W 001°02'23 1.1
2016-Feb-07 22:32N 50°28' W 001°28'1212.4
2016-Feb-07 21:33N 50°34' W 001°11'1212.1
2016-Feb-07 20:33N 50°46' W 001°05'3 2.8
2016-Feb-07 19:32N 50°49' W 001°06'0 0.0
2016-Feb-07 18:32N 50°49' W 001°06'0 0.0
2016-Feb-07 17:32N 50°49' W 001°06'0 0.0
2016-Feb-07 16:32N 50°49' W 001°06'0 0.0
2016-Feb-07 15:32N 50°49' W 001°06'0 0.0
2016-Feb-07 14:32N 50°49' W 001°06'0 0.0
2016-Feb-07 13:32N 50°49' W 001°06'0 0.0
2016-Feb-07 12:32N 50°49' W 001°06'0 0.0
2016-Feb-07 11:32N 50°49' W 001°06'0 0.0
2016-Feb-07 10:32N 50°49' W 001°06'0 0.0
2016-Feb-07 09:32N 50°49' W 001°06'0 0.0
2016-Feb-07 08:32N 50°49' W 001°06'1 0.9
2016-Feb-07 07:33N 50°48' W 001°07'9 9.3
2016-Feb-07 06:33N 50°39' W 001°06'19 0.6
2016-Feb-05 22:33N 50°23' W 001°21'1515.6
2016-Feb-05 21:34N 50°36' W 001°08'1212.4
2016-Feb-05 20:34N 50°48' W 001°07'1 0.9
2016-Feb-05 19:33N 50°49' W 001°06'0 0.0
2016-Feb-05 18:33N 50°49' W 001°06'0 0.0
2016-Feb-05 17:33N 50°49' W 001°06'0 0.0
2016-Feb-05 16:33N 50°49' W 001°06'0 0.0
2016-Feb-05 15:32N 50°49' W 001°06'0 0.0
2016-Feb-05 14:32N 50°49' W 001°06'0 0.0
2016-Feb-05 13:32N 50°49' W 001°06'0 0.0
2016-Feb-05 12:32N 50°49' W 001°06'0 0.0
2016-Feb-05 11:32N 50°49' W 001°06'0 0.0
2016-Feb-05 10:32N 50°49' W 001°06'0 0.0
2016-Feb-05 09:33N 50°49' W 001°06'0 0.0
2016-Feb-05 08:33N 50°49' W 001°06'0 0.0
2016-Feb-05 07:33N 50°49' W 001°06'10 9.6
2016-Feb-05 06:33N 50°39' W 001°05'23 0.7
2016-Feb-03 22:25N 50°20' W 001°25'1416.4
2016-Feb-03 21:33N 50°32' W 001°12'1414.2
2016-Feb-03 20:34N 50°45' W 001°05'4 3.6
2016-Feb-03 19:32N 50°49' W 001°06'0 0.0
2016-Feb-03 18:32N 50°49' W 001°06'0 0.0
2016-Feb-03 17:32N 50°49' W 001°06'0 0.0
2016-Feb-03 16:32N 50°49' W 001°06'0 0.0
2016-Feb-03 15:32N 50°49' W 001°06'0 0.0
2016-Feb-03 14:31N 50°49' W 001°06'0 0.0
2016-Feb-03 13:31N 50°49' W 001°06'0 0.0
2016-Feb-03 12:32N 50°49' W 001°06'0 0.0
2016-Feb-03 11:33N 50°49' W 001°06'0 0.0
2016-Feb-03 10:31N 50°49' W 001°06'0 0.0
2016-Feb-03 09:31N 50°49' W 001°06'0 0.0
2016-Feb-03 08:31N 50°49' W 001°06'0 0.0
2016-Feb-03 07:33N 50°49' W 001°06'10 9.8
2016-Feb-03 06:33N 50°39' W 001°05'6 0.2
2016-Feb-01 21:33N 50°35' W 001°12'1313.2
2016-Feb-01 20:33N 50°47' W 001°07'1 1.4
2016-Feb-01 19:32N 50°49' W 001°06'0 0.0
2016-Feb-01 18:32N 50°49' W 001°06'4 4.2
2016-Feb-01 17:33N 50°45' W 001°05'1714.6
2016-Feb-01 16:24N 50°29' W 001°15'7116.5
2016-Feb-01 12:07N 49°24' W 001°57'1419.4
2016-Feb-01 11:23N 49°10' W 001°52'32 8.1
2016-Feb-01 07:26N 48°38' W 002°02'8 8.2
2016-Feb-01 06:28N 48°45' W 002°09'1617.7
2016-Feb-01 05:32N 48°59' W 002°22'9315.0
2016-Jan-31 23:19N 50°24' W 001°23'1114.2
2016-Jan-31 22:33N 50°33' W 001°16'1312.6
2016-Jan-31 21:34N 50°41' W 000°60'9 9.0
2016-Jan-31 20:34N 50°49' W 001°06'0 0.2
2016-Jan-31 19:32N 50°49' W 001°06'0 0.0
2016-Jan-31 18:32N 50°49' W 001°06'0 0.0
2016-Jan-31 17:32N 50°49' W 001°06'0 0.0
2016-Jan-31 16:32N 50°49' W 001°06'0 0.0
2016-Jan-31 15:32N 50°49' W 001°06'0 0.0
2016-Jan-31 14:32N 50°49' W 001°06'0 0.0
2016-Jan-31 13:32N 50°49' W 001°06'0 0.0
2016-Jan-31 12:29N 50°49' W 001°06'0 0.0
2016-Jan-31 11:32N 50°49' W 001°06'0 0.0
2016-Jan-31 10:32N 50°49' W 001°06'0 0.0
2016-Jan-31 09:32N 50°49' W 001°06'  

Dump ship's entire track history